KBTV/BTV METAR and TAF weather

Enter ICAO airport designator
Station Type Date Time Source
KBTV METAR 2022/06/28 14:54 UTC NOAA

KBTV 281454Z 27003KT 10SM BKN080 19/12 A3015 RMK AO2 RAB11E43 SLP209 P0000 60000 T01890122 53008


Station Type Date Time Source
KBTV Decoded METAR 2022/06/28 14:54 UTC NOAA

BURLINGTON INTERNATIONAL, VT, United States (KBTV) 44-28N 73-09W 105M
Jun 28, 2022 - 10:54 AM EDT / 2022.06.28 1454 UTC
Wind: from the W (270 degrees) at 3 MPH (3 KT):0
Visibility: 10 mile(s):0
Sky conditions: mostly cloudy
Precipitation last hour: A trace
Temperature: 66.0 F (18.9 C)
Dew Point: 54.0 F (12.2 C)
Relative Humidity: 65%
Pressure (altimeter): 30.15 in. Hg (1020 hPa)
Pressure tendency: 0.02 inches (0.8 hPa) higher than three hours ago
ob: KBTV 281454Z 27003KT 10SM BKN080 19/12 A3015 RMK AO2 RAB11E43 SLP209 P0000 60000 T01890122 53008
cycle: 15

Station Type Date Time Source
KBTV TAF 2022/06/28 12:27 UTC NOAA

TAF KBTV 281124Z 2812/2912 31005KT P6SM SCT028 BKN035
FM281500 32007KT P6SM SCT040
FM290100 17004KT P6SM FEW250

Example: see airport list